Time;durP1;ratioP1;P1;durP2;ratioP2;P2;SDS_P1;SDS_P2;PMS_P1;PMS_P2;Temp;Humidity;BMP_temperature;BMP_pressure;BME280_temperature;BME280_humidity;BME280_pressure;Samples;Min_cycle;Max_cycle;Signal;HPM_P1;HPM_P2
2023/10/20 00:00:26;;;;;;;59.92;32.78;;;;;;;;;;5178896;27;20133;-80
2023/10/20 00:02:52;;;;;;;63.30;33.15;;;;;;;;;;5160582;27;20072;-79
2023/10/20 00:05:18;;;;;;;69.18;34.13;;;;;;;;;;5178852;27;20080;-79
2023/10/20 00:07:46;;;;;;;61.42;32.85;;;;;;;;;;5161217;27;20094;-80
2023/10/20 00:10:12;;;;;;;65.10;35.42;;;;;;;;;;5160269;27;20046;-79
2023/10/20 00:12:41;;;;;;;93.10;37.15;;;;;;;;;;5160133;27;20038;-79
2023/10/20 00:15:09;;;;;;;63.05;34.55;;;;;;;;;;5160275;27;20500;-79
2023/10/20 00:17:35;;;;;;;62.35;35.60;;;;;;;;;;5178898;27;20046;-79
2023/10/20 00:20:01;;;;;;;70.40;36.60;;;;;;;;;;5178607;27;20126;-79
2023/10/20 00:22:28;;;;;;;61.40;34.85;;;;;;;;;;5160030;27;20049;-79
2023/10/20 00:24:54;;;;;;;72.10;34.72;;;;;;;;;;5160349;27;20425;-79
2023/10/20 00:27:20;;;;;;;83.55;37.75;;;;;;;;;;5160122;27;20053;-79
2023/10/20 00:29:46;;;;;;;57.33;34.22;;;;;;;;;;5160068;27;20447;-79
2023/10/20 00:32:12;;;;;;;78.97;37.40;;;;;;;;;;5160506;27;20046;-79
2023/10/20 00:34:38;;;;;;;66.97;34.90;;;;;;;;;;5159933;27;20102;-79
2023/10/20 00:37:04;;;;;;;54.50;33.65;;;;;;;;;;5142629;27;20046;-79
2023/10/20 00:39:30;;;;;;;61.33;34.30;;;;;;;;;;5159529;27;20042;-79
2023/10/20 00:41:56;;;;;;;158.30;45.42;;;;;;;;;;5159606;27;20042;-79
2023/10/20 00:44:22;;;;;;;66.63;32.92;;;;;;;;;;5178610;27;20399;-80
2023/10/20 00:46:49;;;;;;;68.38;34.42;;;;;;;;;;5178047;27;20051;-79
2023/10/20 00:49:15;;;;;;;60.05;33.53;;;;;;;;;;5178590;27;20378;-80
2023/10/20 00:51:41;;;;;;;62.70;33.65;;;;;;;;;;5159371;27;20049;-80
2023/10/20 00:54:13;;;;;;;95.63;35.70;;;;;;;;;;5159793;27;20091;-79
2023/10/20 00:56:41;;;;;;;65.18;32.95;;;;;;;;;;5159922;27;20049;-79
2023/10/20 00:59:08;;;;;;;62.00;32.95;;;;;;;;;;5159389;27;20477;-79
2023/10/20 01:01:35;;;;;;;60.15;33.33;;;;;;;;;;5177748;27;20424;-80
2023/10/20 01:04:01;;;;;;;68.78;34.13;;;;;;;;;;5142628;27;20134;-79
2023/10/20 01:06:27;;;;;;;132.15;40.45;;;;;;;;;;5177628;27;20042;-79
2023/10/20 01:08:56;;;;;;;68.28;33.33;;;;;;;;;;5159788;27;20043;-79
2023/10/20 01:11:22;;;;;;;163.75;44.08;;;;;;;;;;5159175;27;20042;-80
2023/10/20 01:13:48;;;;;;;69.20;33.38;;;;;;;;;;5158994;27;20088;-79
2023/10/20 01:16:15;;;;;;;82.55;34.63;;;;;;;;;;5141891;27;20069;-79
2023/10/20 01:18:41;;;;;;;98.80;36.42;;;;;;;;;;5142081;27;20431;-79
2023/10/20 01:21:07;;;;;;;61.35;30.90;;;;;;;;;;5159836;27;20082;-80
2023/10/20 01:23:33;;;;;;;57.72;31.08;;;;;;;;;;5158820;27;20053;-79
2023/10/20 01:25:59;;;;;;;65.53;31.63;;;;;;;;;;5141660;27;20132;-80
2023/10/20 01:28:25;;;;;;;174.68;45.40;;;;;;;;;;5158685;27;20549;-80
2023/10/20 01:30:51;;;;;;;61.00;30.02;;;;;;;;;;5141373;27;20053;-79
2023/10/20 01:33:17;;;;;;;66.25;31.50;;;;;;;;;;5158746;27;20042;-79
2023/10/20 01:35:43;;;;;;;54.72;30.38;;;;;;;;;;5158242;27;20042;-79
2023/10/20 01:38:09;;;;;;;73.80;33.45;;;;;;;;;;5141289;27;20048;-80
2023/10/20 01:40:35;;;;;;;94.78;33.25;;;;;;;;;;5177249;27;20038;-79
2023/10/20 01:43:01;;;;;;;78.43;33.03;;;;;;;;;;5176948;27;20050;-79
2023/10/20 01:45:28;;;;;;;69.10;32.63;;;;;;;;;;5141392;27;20042;-81
2023/10/20 01:47:55;;;;;;;70.75;34.28;;;;;;;;;;5140945;27;20050;-80
2023/10/20 01:50:21;;;;;;;58.58;33.60;;;;;;;;;;5177438;27;20054;-80
2023/10/20 01:52:47;;;;;;;62.70;33.63;;;;;;;;;;5177011;27;20042;-81
2023/10/20 01:55:14;;;;;;;60.60;32.80;;;;;;;;;;5158762;27;20046;-81
2023/10/20 01:57:40;;;;;;;57.30;31.40;;;;;;;;;;5141483;27;20046;-81
2023/10/20 02:00:13;;;;;;;81.85;35.80;;;;;;;;;;5158378;27;20478;-80
2023/10/20 02:02:39;;;;;;;64.53;33.80;;;;;;;;;;5159151;27;20118;-81
2023/10/20 02:05:08;;;;;;;55.03;32.20;;;;;;;;;;5158522;27;20041;-80
2023/10/20 02:07:34;;;;;;;58.40;33.50;;;;;;;;;;5140883;27;20082;-80
2023/10/20 02:10:00;;;;;;;85.78;36.58;;;;;;;;;;5158718;27;20042;-80
2023/10/20 02:12:27;;;;;;;63.08;30.67;;;;;;;;;;5158458;27;20046;-79
2023/10/20 02:14:53;;;;;;;56.35;31.95;;;;;;;;;;5158011;27;20057;-79
2023/10/20 02:17:20;;;;;;;55.92;32.00;;;;;;;;;;5158114;27;20042;-80
2023/10/20 02:19:46;;;;;;;53.55;31.55;;;;;;;;;;5176705;27;20042;-79
2023/10/20 02:22:13;;;;;;;57.08;32.05;;;;;;;;;;5157994;27;20038;-80
2023/10/20 02:24:39;;;;;;;58.90;32.95;;;;;;;;;;5158738;27;20382;-80
2023/10/20 02:27:05;;;;;;;57.30;32.28;;;;;;;;;;5177128;27;20078;-80
2023/10/20 02:29:33;;;;;;;53.13;30.98;;;;;;;;;;5141292;27;20365;-80
2023/10/20 02:31:59;;;;;;;62.47;30.55;;;;;;;;;;5141296;27;20117;-80
2023/10/20 02:34:26;;;;;;;54.50;33.05;;;;;;;;;;5176728;27;20056;-79
2023/10/20 02:36:52;;;;;;;60.22;33.25;;;;;;;;;;5157906;27;20045;-79
2023/10/20 02:39:18;;;;;;;61.58;32.90;;;;;;;;;;5158291;27;20508;-79
2023/10/20 02:41:44;;;;;;;59.95;31.33;;;;;;;;;;5157710;27;20090;-79
2023/10/20 02:44:10;;;;;;;80.90;35.03;;;;;;;;;;5176655;27;20042;-78
2023/10/20 02:46:36;;;;;;;59.58;30.17;;;;;;;;;;5158880;27;20042;-79
2023/10/20 02:49:04;;;;;;;56.15;31.75;;;;;;;;;;5161593;27;20141;-79
2023/10/20 02:51:30;;;;;;;101.15;36.08;;;;;;;;;;5161893;27;20049;-78
2023/10/20 02:53:56;;;;;;;59.58;30.13;;;;;;;;;;5161830;27;20045;-78
2023/10/20 02:56:23;;;;;;;56.00;31.73;;;;;;;;;;5161766;27;20042;-79
2023/10/20 02:58:49;;;;;;;57.30;29.30;;;;;;;;;;5144724;27;20394;-78
2023/10/20 03:01:16;;;;;;;49.45;30.67;;;;;;;;;;5180673;27;20058;-79
2023/10/20 03:03:43;;;;;;;57.60;31.83;;;;;;;;;;5161599;27;20056;-79
2023/10/20 03:06:09;;;;;;;50.60;29.52;;;;;;;;;;5161778;27;20398;-79
2023/10/20 03:08:36;;;;;;;53.08;28.92;;;;;;;;;;5126871;27;20046;-79
2023/10/20 03:11:04;;;;;;;56.05;31.73;;;;;;;;;;5161418;27;20042;-79
2023/10/20 03:13:30;;;;;;;56.28;30.13;;;;;;;;;;5161591;27;20107;-79
2023/10/20 03:15:57;;;;;;;58.13;30.52;;;;;;;;;;5162003;27;20042;-78
2023/10/20 03:18:23;;;;;;;49.78;29.75;;;;;;;;;;5162242;27;20046;-79
2023/10/20 03:20:50;;;;;;;70.55;32.40;;;;;;;;;;5179789;27;20140;-79
2023/10/20 03:23:17;;;;;;;50.78;29.90;;;;;;;;;;5162231;27;20057;-79
2023/10/20 03:25:44;;;;;;;54.40;29.40;;;;;;;;;;5161326;27;20115;-79
2023/10/20 03:28:10;;;;;;;47.63;29.48;;;;;;;;;;5144326;27;20042;-79
2023/10/20 03:30:40;;;;;;;54.50;29.63;;;;;;;;;;5161268;27;20053;-80
2023/10/20 03:33:06;;;;;;;54.42;30.02;;;;;;;;;;5160969;27;20048;-80
2023/10/20 03:35:33;;;;;;;46.92;28.95;;;;;;;;;;5161977;27;20049;-80
2023/10/20 03:38:00;;;;;;;51.40;29.77;;;;;;;;;;5160971;27;20046;-79
2023/10/20 03:40:47;;;;;;;47.75;29.13;;;;;;;;;;5161074;27;20462;-79
2023/10/20 03:43:13;;;;;;;48.55;28.30;;;;;;;;;;5161400;27;20049;-80
2023/10/20 03:45:48;;;;;;;43.78;28.25;;;;;;;;;;5160776;27;20046;-80
2023/10/20 03:48:14;;;;;;;53.60;27.33;;;;;;;;;;5143973;27;20071;-80
2023/10/20 03:50:46;;;;;;;45.38;27.77;;;;;;;;;;5142654;27;20046;-79
2023/10/20 03:53:21;;;;;;;57.33;28.85;;;;;;;;;;5141804;27;20046;-80
2023/10/20 03:55:56;;;;;;;50.58;28.85;;;;;;;;;;5159609;27;20050;-81
2023/10/20 03:58:23;;;;;;;45.22;26.48;;;;;;;;;;5159116;27;20461;-80
2023/10/20 04:00:52;;;;;;;53.10;29.40;;;;;;;;;;5160144;27;20050;-80
2023/10/20 04:03:18;;;;;;;53.70;28.42;;;;;;;;;;5159429;27;20038;-79
2023/10/20 04:05:44;;;;;;;51.40;29.25;;;;;;;;;;5142053;27;20049;-80
2023/10/20 04:08:10;;;;;;;52.63;27.75;;;;;;;;;;5158989;27;20046;-80
2023/10/20 04:10:37;;;;;;;50.05;30.08;;;;;;;;;;5159356;27;20042;-80
2023/10/20 04:13:04;;;;;;;69.15;31.27;;;;;;;;;;5159192;27;20050;-81
2023/10/20 04:15:36;;;;;;;50.90;26.95;;;;;;;;;;5178171;27;20523;-80
2023/10/20 04:18:03;;;;;;;45.20;28.02;;;;;;;;;;5159008;27;20042;-79
2023/10/20 04:20:30;;;;;;;53.42;28.55;;;;;;;;;;5141900;27;20050;-80
2023/10/20 04:22:58;;;;;;;48.08;28.17;;;;;;;;;;5158879;27;20053;-79
2023/10/20 04:25:33;;;;;;;52.88;28.30;;;;;;;;;;5159093;27;20128;-80
2023/10/20 04:28:33;;;;;;;46.70;28.45;;;;;;;;;;5159579;27;20053;-80
2023/10/20 05:08:04;;;;;;;39.22;24.38;;;;;;;;;;5127424;27;20406;-79
2023/10/20 05:10:30;;;;;;;42.58;25.95;;;;;;;;;;5158147;27;20128;-80
2023/10/20 05:12:59;;;;;;;50.65;25.50;;;;;;;;;;5159964;27;20046;-79
2023/10/20 05:15:26;;;;;;;45.22;26.92;;;;;;;;;;5159104;27;20082;-79
2023/10/20 05:17:55;;;;;;;45.33;27.42;;;;;;;;;;5141871;27;20046;-79
2023/10/20 05:20:22;;;;;;;41.13;26.80;;;;;;;;;;5159926;27;20042;-79
2023/10/20 05:22:49;;;;;;;45.97;26.88;;;;;;;;;;5177366;27;20057;-79
2023/10/20 05:25:15;;;;;;;40.80;26.05;;;;;;;;;;5142552;27;20072;-79
2023/10/20 05:27:41;;;;;;;38.88;24.65;;;;;;;;;;5158881;27;20500;-78
2023/10/20 05:30:08;;;;;;;36.80;23.20;;;;;;;;;;5177725;27;20042;-79
2023/10/20 05:32:37;;;;;;;35.00;22.17;;;;;;;;;;5158798;27;20042;-79
2023/10/20 05:35:04;;;;;;;32.65;22.35;;;;;;;;;;5177142;27;20042;-79
2023/10/20 05:37:31;;;;;;;33.03;20.90;;;;;;;;;;5159032;27;20073;-79
2023/10/20 05:39:57;;;;;;;30.65;21.58;;;;;;;;;;5159445;27;20042;-80
2023/10/20 05:42:24;;;;;;;33.50;21.40;;;;;;;;;;5158664;27;20053;-80
2023/10/20 05:47:35;;;;;;;27.67;18.88;;;;;;;;;;5158667;27;20054;-79
2023/10/20 05:50:02;;;;;;;31.38;19.73;;;;;;;;;;5157856;27;20451;-79
2023/10/20 05:52:29;;;;;;;30.00;18.85;;;;;;;;;;5158239;27;20057;-80
2023/10/20 05:54:59;;;;;;;28.48;17.45;;;;;;;;;;5141927;27;20065;-79
2023/10/20 05:57:27;;;;;;;27.75;16.67;;;;;;;;;;5159181;27;20478;-80
2023/10/20 05:59:54;;;;;;;30.92;19.13;;;;;;;;;;5158325;27;20489;-80
2023/10/20 06:02:20;;;;;;;31.92;20.05;;;;;;;;;;5177052;27;20401;-79
2023/10/20 06:04:46;;;;;;;35.58;20.90;;;;;;;;;;5158083;27;20049;-78
2023/10/20 06:07:12;;;;;;;32.15;21.58;;;;;;;;;;5158266;27;20038;-78
2023/10/20 06:09:39;;;;;;;27.27;18.40;;;;;;;;;;5157909;27;20059;-80
2023/10/20 06:12:07;;;;;;;25.70;16.70;;;;;;;;;;5159079;27;20081;-79
2023/10/20 06:14:36;;;;;;;27.25;17.00;;;;;;;;;;5140841;27;20050;-79
2023/10/20 06:17:02;;;;;;;24.33;17.65;;;;;;;;;;5176455;27;20046;-79
2023/10/20 06:19:28;;;;;;;25.20;18.08;;;;;;;;;;5141030;27;20482;-79
2023/10/20 06:21:55;;;;;;;28.15;18.45;;;;;;;;;;5157953;27;20513;-79
2023/10/20 06:24:22;;;;;;;27.02;18.10;;;;;;;;;;5158016;27;20080;-79
2023/10/20 06:26:48;;;;;;;25.65;15.98;;;;;;;;;;5158807;27;20053;-79
2023/10/20 06:34:34;;;;;;;26.17;15.07;;;;;;;;;;5158821;27;20038;-79
2023/10/20 06:37:08;;;;;;;22.25;16.45;;;;;;;;;;5158776;27;20034;-79
2023/10/20 06:39:35;;;;;;;21.38;15.02;;;;;;;;;;5158177;27;20050;-79
2023/10/20 06:42:01;;;;;;;21.83;14.15;;;;;;;;;;5157835;27;20095;-80
2023/10/20 06:44:28;;;;;;;19.27;14.05;;;;;;;;;;5140549;27;20073;-79
2023/10/20 06:46:56;;;;;;;18.25;13.65;;;;;;;;;;5157278;27;20593;-79
2023/10/20 06:49:23;;;;;;;20.40;13.65;;;;;;;;;;5176124;27;20420;-79
2023/10/20 06:51:49;;;;;;;19.08;14.15;;;;;;;;;;5157790;27;20054;-80
2023/10/20 06:54:16;;;;;;;22.60;14.57;;;;;;;;;;5140611;27;20075;-79
2023/10/20 06:56:42;;;;;;;21.50;14.10;;;;;;;;;;5157755;27;20042;-80
2023/10/20 06:59:13;;;;;;;17.52;13.10;;;;;;;;;;5157688;27;20114;-79
2023/10/20 07:01:40;;;;;;;17.60;12.35;;;;;;;;;;5157925;27;20042;-79
2023/10/20 07:04:08;;;;;;;22.65;14.35;;;;;;;;;;5158528;27;20120;-80
2023/10/20 07:06:36;;;;;;;17.17;12.65;;;;;;;;;;5140452;27;20481;-80
2023/10/20 07:09:11;;;;;;;18.73;13.73;;;;;;;;;;5157043;27;20483;-80
2023/10/20 07:11:37;;;;;;;;;;;;;;;;;;5158958;27;20049;-81
2023/10/20 07:14:05;;;;;;;20.40;12.73;;;;;;;;;;5157306;27;19914;-81
2023/10/20 07:16:31;;;;;;;16.38;11.55;;;;;;;;;;5175985;27;20374;-80
2023/10/20 07:18:57;;;;;;;22.38;13.57;;;;;;;;;;5157399;27;20101;-79
2023/10/20 07:21:24;;;;;;;15.88;11.95;;;;;;;;;;5157789;27;20106;-75
2023/10/20 07:23:50;;;;;;;14.95;11.05;;;;;;;;;;5176437;27;20366;-75
2023/10/20 07:26:17;;;;;;;17.95;11.57;;;;;;;;;;5157201;27;20053;-76
2023/10/20 07:28:44;;;;;;;15.55;10.77;;;;;;;;;;5176067;27;20065;-75
2023/10/20 07:31:11;;;;;;;14.98;11.52;;;;;;;;;;5175742;27;20038;-75
2023/10/20 07:33:38;;;;;;;14.95;10.80;;;;;;;;;;5178971;27;20034;-77
2023/10/20 07:36:05;;;;;;;13.68;11.32;;;;;;;;;;5161211;27;20046;-76
2023/10/20 07:38:31;;;;;;;13.48;10.45;;;;;;;;;;5160529;27;20486;-76
2023/10/20 07:40:57;;;;;;;13.90;10.35;;;;;;;;;;5161079;27;20049;-76
2023/10/20 07:43:23;;;;;;;12.70;9.90;;;;;;;;;;5179388;27;20038;-77
2023/10/20 07:45:50;;;;;;;12.20;9.90;;;;;;;;;;5161224;27;20053;-76
2023/10/20 07:48:16;;;;;;;10.68;8.63;;;;;;;;;;5160292;27;20479;-75
2023/10/20 07:50:42;;;;;;;9.70;8.70;;;;;;;;;;5179898;27;20050;-75
2023/10/20 07:53:08;;;;;;;11.82;7.53;;;;;;;;;;5161703;27;20038;-75
2023/10/20 07:55:34;;;;;;;11.40;8.02;;;;;;;;;;5143909;27;20046;-76
2023/10/20 07:58:00;;;;;;;11.15;7.43;;;;;;;;;;5160607;27;20053;-76
2023/10/20 08:00:26;;;;;;;9.65;7.63;;;;;;;;;;5179083;27;20385;-75
2023/10/20 08:02:53;;;;;;;8.05;6.90;;;;;;;;;;5160658;27;20119;-75
2023/10/20 08:05:19;;;;;;;8.65;6.68;;;;;;;;;;5160821;27;20042;-76
2023/10/20 08:07:48;;;;;;;11.65;7.97;;;;;;;;;;5160036;27;20489;-76
2023/10/20 08:10:14;;;;;;;7.13;5.50;;;;;;;;;;5143411;27;20194;-76
2023/10/20 08:12:40;;;;;;;11.35;6.03;;;;;;;;;;5178788;27;20486;-76
2023/10/20 08:15:08;;;;;;;7.13;5.38;;;;;;;;;;5178767;27;20125;-77
2023/10/20 08:17:34;;;;;;;6.55;4.90;;;;;;;;;;5178731;27;20049;-77
2023/10/20 08:20:00;;;;;;;8.35;5.68;;;;;;;;;;5178446;27;20084;-78
2023/10/20 08:22:26;;;;;;;6.53;5.57;;;;;;;;;;5160280;27;20046;-77
2023/10/20 08:24:53;;;;;;;8.25;5.25;;;;;;;;;;5179209;27;20097;-77
2023/10/20 08:27:19;;;;;;;7.88;4.47;;;;;;;;;;5160024;27;20038;-76
2023/10/20 08:29:49;;;;;;;7.00;3.97;;;;;;;;;;5179055;27;20038;-76
2023/10/20 08:32:16;;;;;;;5.30;4.32;;;;;;;;;;5160191;27;20546;-78
2023/10/20 08:34:43;;;;;;;5.68;4.82;;;;;;;;;;5143106;27;20075;-77
2023/10/20 08:37:09;;;;;;;5.88;4.45;;;;;;;;;;5159528;27;20053;-77
2023/10/20 08:39:35;;;;;;;4.25;3.85;;;;;;;;;;5160154;27;20477;-76
2023/10/20 08:42:02;;;;;;;4.25;2.92;;;;;;;;;;5178379;27;20038;-77
2023/10/20 08:44:30;;;;;;;4.72;3.78;;;;;;;;;;5141935;27;20056;-77
2023/10/20 08:46:57;;;;;;;4.05;2.90;;;;;;;;;;5178192;27;20046;-77
2023/10/20 08:49:24;;;;;;;3.78;2.70;;;;;;;;;;5159381;27;20046;-77
2023/10/20 08:51:50;;;;;;;3.55;2.80;;;;;;;;;;5159308;27;20054;-78
2023/10/20 08:54:19;;;;;;;2.58;2.05;;;;;;;;;;5159818;27;20089;-79
2023/10/20 08:56:45;;;;;;;3.28;1.42;;;;;;;;;;5142905;27;20490;-79
2023/10/20 08:59:11;;;;;;;2.67;1.48;;;;;;;;;;5160303;27;20144;-78
2023/10/20 09:01:37;;;;;;;2.75;2.15;;;;;;;;;;5177842;27;20106;-78
2023/10/20 09:04:04;;;;;;;2.30;2.10;;;;;;;;;;5177852;27;20454;-77
2023/10/20 09:06:30;;;;;;;1.83;1.70;;;;;;;;;;5159235;27;20050;-78
2023/10/20 09:08:59;;;;;;;1.58;1.38;;;;;;;;;;5158992;27;20081;-78
2023/10/20 09:11:30;;;;;;;3.30;1.80;;;;;;;;;;5160021;27;20050;-78
2023/10/20 09:13:56;;;;;;;1.40;1.17;;;;;;;;;;5159746;27;20042;-77
2023/10/20 09:16:23;;;;;;;3.95;1.60;;;;;;;;;;5160070;27;20427;-77
2023/10/20 09:18:49;;;;;;;2.30;2.10;;;;;;;;;;5177620;27;20060;-78
2023/10/20 09:21:19;;;;;;;2.53;2.15;;;;;;;;;;5159133;27;20042;-78
2023/10/20 09:23:58;;;;;;;1.63;1.48;;;;;;;;;;5177478;27;20042;-78
2023/10/20 09:26:25;;;;;;;1.60;1.50;;;;;;;;;;5159418;27;20045;-77
2023/10/20 09:28:53;;;;;;;1.23;0.93;;;;;;;;;;5158863;27;20051;-77
2023/10/20 09:31:20;;;;;;;2.10;0.77;;;;;;;;;;5159128;27;20046;-77
2023/10/20 09:33:46;;;;;;;1.33;1.00;;;;;;;;;;5159164;27;20521;-78
2023/10/20 09:36:13;;;;;;;1.65;0.88;;;;;;;;;;5158967;27;20042;-78
2023/10/20 09:38:39;;;;;;;1.05;0.80;;;;;;;;;;5159317;27;20050;-77
2023/10/20 09:41:11;;;;;;;2.90;0.80;;;;;;;;;;5141477;27;20042;-77
2023/10/20 09:43:38;;;;;;;2.10;0.52;;;;;;;;;;5158598;27;20121;-78
2023/10/20 09:46:12;;;;;;;0.50;0.30;;;;;;;;;;5177058;27;20158;-77
2023/10/20 09:48:42;;;;;;;1.20;0.50;;;;;;;;;;5158529;27;20054;-77
2023/10/20 09:51:09;;;;;;;0.60;0.30;;;;;;;;;;5177130;27;20077;-78
2023/10/20 09:53:36;;;;;;;0.70;0.50;;;;;;;;;;5158452;27;20409;-77
2023/10/20 09:56:02;;;;;;;1.48;0.40;;;;;;;;;;5158257;27;20057;-78
2023/10/20 09:58:34;;;;;;;0.80;0.50;;;;;;;;;;5176789;27;20046;-77
2023/10/20 10:01:00;;;;;;;0.82;0.30;;;;;;;;;;5141119;27;20057;-77
2023/10/20 10:03:43;;;;;;;0.60;0.30;;;;;;;;;;5176647;27;20126;-76
2023/10/20 10:06:16;;;;;;;1.13;0.40;;;;;;;;;;5158901;27;20485;-77
2023/10/20 10:08:43;;;;;;;1.42;0.38;;;;;;;;;;5140999;27;20393;-76
2023/10/20 10:11:26;;;;;;;0.90;0.38;;;;;;;;;;5176560;27;20046;-76
2023/10/20 10:13:54;;;;;;;1.52;0.20;;;;;;;;;;5159034;27;20046;-76
2023/10/20 10:16:21;;;;;;;0.60;0.25;;;;;;;;;;5176519;27;20125;-77
2023/10/20 10:18:48;;;;;;;0.38;0.20;;;;;;;;;;5140806;27;20083;-77
2023/10/20 10:21:29;;;;;;;0.25;0.20;;;;;;;;;;5176491;27;20042;-78
2023/10/20 10:24:15;;;;;;;1.15;0.17;;;;;;;;;;5158053;27;20054;-77
2023/10/20 10:26:57;;;;;;;1.48;0.30;;;;;;;;;;5158866;27;20046;-77
2023/10/20 10:29:42;;;;;;;2.05;0.20;;;;;;;;;;5157809;27;20508;-77
2023/10/20 10:32:14;;;;;;;0.40;0.20;;;;;;;;;;5176333;27;20541;-77
2023/10/20 10:34:44;;;;;;;0.50;0.30;;;;;;;;;;5176286;27;20046;-76
2023/10/20 10:37:10;;;;;;;0.60;0.30;;;;;;;;;;5158157;27;20125;-77
2023/10/20 10:39:37;;;;;;;0.40;0.20;;;;;;;;;;5157776;27;20048;-76
2023/10/20 10:42:03;;;;;;;1.38;0.20;;;;;;;;;;5140387;27;20089;-77
2023/10/20 10:44:36;;;;;;;0.82;0.10;;;;;;;;;;5157844;27;20053;-77
2023/10/20 10:47:07;;;;;;;0.43;0.13;;;;;;;;;;5176199;27;20042;-77
2023/10/20 10:49:33;;;;;;;0.10;0.10;;;;;;;;;;5157443;27;20545;-77
2023/10/20 10:52:07;;;;;;;0.38;0.20;;;;;;;;;;5158428;27;20485;-79
2023/10/20 10:54:34;;;;;;;0.20;0.10;;;;;;;;;;5176242;27;20054;-76
2023/10/20 10:57:03;;;;;;;0.28;0.10;;;;;;;;;;5157441;27;20038;-76
2023/10/20 10:59:30;;;;;;;0.20;0.10;;;;;;;;;;5157409;27;20079;-78
2023/10/20 11:01:57;;;;;;;0.40;0.13;;;;;;;;;;5175672;27;20133;-79
2023/10/20 11:04:23;;;;;;;0.60;0.10;;;;;;;;;;5140027;27;20054;-79
2023/10/20 11:06:49;;;;;;;1.20;0.20;;;;;;;;;;5175710;27;20055;-78
2023/10/20 11:09:22;;;;;;;1.95;0.17;;;;;;;;;;5160574;27;20401;-79
2023/10/20 11:11:48;;;;;;;0.82;0.13;;;;;;;;;;5162057;27;20129;-78
2023/10/20 11:14:18;;;;;;;0.47;0.20;;;;;;;;;;5179647;27;20042;-78
2023/10/20 11:16:45;;;;;;;0.93;0.10;;;;;;;;;;5161564;27;20083;-78
2023/10/20 11:19:14;;;;;;;1.50;0.20;;;;;;;;;;5160931;27;20091;-80
2023/10/20 11:21:48;;;;;;;0.50;0.10;;;;;;;;;;5161097;27;20042;-80
2023/10/20 11:24:25;;;;;;;0.25;0.10;;;;;;;;;;5160717;27;20086;-77
2023/10/20 11:26:54;;;;;;;0.50;0.10;;;;;;;;;;5179596;27;20056;-74
2023/10/20 11:29:20;;;;;;;0.30;0.10;;;;;;;;;;5161134;27;20537;-75
2023/10/20 11:31:47;;;;;;;0.47;0.10;;;;;;;;;;5179681;27;20042;-76
2023/10/20 11:34:13;;;;;;;0.32;0.10;;;;;;;;;;5143969;27;20045;-76
2023/10/20 11:36:39;;;;;;;0.17;0.10;;;;;;;;;;5179585;27;20125;-74
2023/10/20 11:39:06;;;;;;;0.88;0.20;;;;;;;;;;5143799;27;20511;-78
2023/10/20 11:41:32;;;;;;;0.40;0.20;;;;;;;;;;5160951;27;20133;-76
2023/10/20 11:43:58;;;;;;;1.95;0.10;;;;;;;;;;5180058;27;20355;-76
2023/10/20 11:46:24;;;;;;;0.20;0.10;;;;;;;;;;5161275;27;20050;-76
2023/10/20 11:48:51;;;;;;;0.52;0.10;;;;;;;;;;5179243;27;20096;-76
2023/10/20 11:51:17;;;;;;;0.60;0.20;;;;;;;;;;5179889;27;20042;-76
2023/10/20 11:53:43;;;;;;;0.40;0.03;;;;;;;;;;5179102;27;20042;-75
2023/10/20 11:56:10;;;;;;;0.63;0.10;;;;;;;;;;5179148;27;20046;-76
2023/10/20 11:58:37;;;;;;;0.28;0.10;;;;;;;;;;5160733;27;20073;-75
2023/10/20 12:01:03;;;;;;;1.08;0.10;;;;;;;;;;5178933;27;20042;-75
2023/10/20 12:03:29;;;;;;;0.28;0.10;;;;;;;;;;5178866;27;20049;-78
2023/10/20 12:05:55;;;;;;;0.20;0.03;;;;;;;;;;5160793;27;20065;-76
2023/10/20 12:08:23;;;;;;;0.30;0.10;;;;;;;;;;5179589;27;20386;-77
2023/10/20 12:10:49;;;;;;;0.15;0.10;;;;;;;;;;5160606;27;20394;-76
2023/10/20 12:13:15;;;;;;;0.30;0.00;;;;;;;;;;5179444;27;20470;-81
2023/10/20 12:15:41;;;;;;;0.60;0.00;;;;;;;;;;5178307;27;20125;-77
2023/10/20 12:18:07;;;;;;;0.20;0.10;;;;;;;;;;5159647;27;20050;-78
2023/10/20 12:20:33;;;;;;;0.10;0.00;;;;;;;;;;5178943;27;20044;-76
2023/10/20 12:22:59;;;;;;;0.10;0.10;;;;;;;;;;5143163;27;20053;-77
2023/10/20 12:25:26;;;;;;;0.20;0.03;;;;;;;;;;5160176;27;20506;-78
2023/10/20 12:27:52;;;;;;;0.10;0.08;;;;;;;;;;5160381;27;20090;-80
2023/10/20 12:30:18;;;;;;;0.73;0.20;;;;;;;;;;5159823;27;20047;-77
2023/10/20 12:32:44;;;;;;;0.20;0.10;;;;;;;;;;5159985;27;20431;-78
2023/10/20 12:35:11;;;;;;;0.20;0.10;;;;;;;;;;5160029;27;20072;-79
2023/10/20 12:37:38;;;;;;;0.52;0.10;;;;;;;;;;5160698;27;20038;-82
2023/10/20 12:40:05;;;;;;;1.13;0.10;;;;;;;;;;5159294;27;20046;-78
2023/10/20 12:42:31;;;;;;;0.10;0.08;;;;;;;;;;5159751;27;20493;-80
2023/10/20 12:45:01;;;;;;;0.10;0.10;;;;;;;;;;5159844;27;20129;-82
2023/10/20 12:47:27;;;;;;;0.05;0.00;;;;;;;;;;5160058;27;20043;-80
2023/10/20 12:49:57;;;;;;;0.25;0.08;;;;;;;;;;5178527;27;20050;-80
2023/10/20 12:52:24;;;;;;;1.23;0.10;;;;;;;;;;5160651;27;20404;-79
2023/10/20 12:54:52;;;;;;;0.10;0.03;;;;;;;;;;5159589;27;20042;-78
2023/10/20 12:57:18;;;;;;;0.10;0.00;;;;;;;;;;5142266;27;20045;-80
2023/10/20 12:59:44;;;;;;;0.20;0.10;;;;;;;;;;5178011;27;20038;-78
2023/10/20 13:02:10;;;;;;;1.23;0.10;;;;;;;;;;5177906;27;20095;-78
2023/10/20 13:04:36;;;;;;;0.40;0.10;;;;;;;;;;5159092;27;20050;-80
2023/10/20 13:07:03;;;;;;;0.47;0.05;;;;;;;;;;5159279;27;20538;-80
2023/10/20 13:09:29;;;;;;;0.20;0.10;;;;;;;;;;5176860;27;20462;-78
2023/10/20 13:11:58;;;;;;;0.08;0.03;;;;;;;;;;5159351;27;20397;-79
2023/10/20 13:14:25;;;;;;;1.05;0.17;;;;;;;;;;5141737;27;20042;-79
2023/10/20 13:16:51;;;;;;;0.20;0.10;;;;;;;;;;5142830;27;20042;-78
2023/10/20 13:19:18;;;;;;;0.35;0.10;;;;;;;;;;5177578;27;20046;-77
2023/10/20 13:21:44;;;;;;;0.30;0.10;;;;;;;;;;5159387;27;20054;-77
2023/10/20 13:24:11;;;;;;;0.40;0.20;;;;;;;;;;5177218;27;20038;-77
2023/10/20 13:26:37;;;;;;;0.40;0.10;;;;;;;;;;5158742;27;20473;-78
2023/10/20 13:29:04;;;;;;;0.30;0.10;;;;;;;;;;5158863;27;20089;-79
2023/10/20 13:31:30;;;;;;;0.20;0.10;;;;;;;;;;5158023;27;20050;-77
2023/10/20 13:33:56;;;;;;;0.82;0.10;;;;;;;;;;5159261;27;20087;-78
2023/10/20 13:36:22;;;;;;;0.73;0.10;;;;;;;;;;5158704;27;20125;-77
2023/10/20 13:38:48;;;;;;;2.28;0.10;;;;;;;;;;5177096;27;20046;-77
2023/10/20 13:41:15;;;;;;;0.30;0.10;;;;;;;;;;5159637;27;20214;-79
2023/10/20 13:43:44;;;;;;;0.98;0.10;;;;;;;;;;5177101;27;20046;-78
2023/10/20 13:46:10;;;;;;;0.10;0.10;;;;;;;;;;5159063;27;20046;-77
2023/10/20 13:48:37;;;;;;;0.05;0.05;;;;;;;;;;5177385;27;20133;-77
2023/10/20 13:51:03;;;;;;;0.20;0.00;;;;;;;;;;5159434;27;20385;-78
2023/10/20 13:53:29;;;;;;;0.10;0.10;;;;;;;;;;5158041;27;20057;-77
2023/10/20 13:55:55;;;;;;;0.10;0.03;;;;;;;;;;5159286;27;20422;-77
2023/10/20 13:58:21;;;;;;;0.17;0.10;;;;;;;;;;5158184;27;20078;-76
2023/10/20 14:00:49;;;;;;;0.35;0.10;;;;;;;;;;5176687;27;20486;-77
2023/10/20 14:03:15;;;;;;;0.20;0.10;;;;;;;;;;5158362;27;20058;-76
2023/10/20 14:05:50;;;;;;;0.30;0.10;;;;;;;;;;5158362;27;20090;-77
2023/10/20 14:08:16;;;;;;;0.13;0.10;;;;;;;;;;5176943;27;20050;-77
2023/10/20 14:10:42;;;;;;;1.02;0.10;;;;;;;;;;5176411;27;20111;-77
2023/10/20 14:13:09;;;;;;;0.20;0.10;;;;;;;;;;5157925;27;20390;-77
2023/10/20 14:15:35;;;;;;;0.10;0.10;;;;;;;;;;5176532;27;20042;-76
2023/10/20 14:18:02;;;;;;;0.28;0.08;;;;;;;;;;5176419;27;20100;-78
2023/10/20 14:20:31;;;;;;;0.95;0.00;;;;;;;;;;5158834;27;20038;-76
2023/10/20 14:22:57;;;;;;;0.05;0.00;;;;;;;;;;5176416;27;20046;-78
2023/10/20 14:25:23;;;;;;;0.90;0.10;;;;;;;;;;5157710;27;20042;-76
2023/10/20 14:27:49;;;;;;;0.10;0.10;;;;;;;;;;5176914;27;20394;-76
2023/10/20 14:30:15;;;;;;;0.20;0.08;;;;;;;;;;5140722;27;20046;-77
2023/10/20 14:32:41;;;;;;;0.10;0.05;;;;;;;;;;5158021;27;20073;-76
2023/10/20 14:35:07;;;;;;;0.40;0.10;;;;;;;;;;5176295;27;20050;-77
2023/10/20 14:37:33;;;;;;;0.13;0.10;;;;;;;;;;5176254;27;20153;-77
2023/10/20 14:40:00;;;;;;;0.40;0.10;;;;;;;;;;5157906;27;20050;-78
2023/10/20 14:42:26;;;;;;;0.10;0.00;;;;;;;;;;5179164;27;20049;-76
2023/10/20 14:44:52;;;;;;;0.10;0.00;;;;;;;;;;5162830;27;20042;-76
2023/10/20 14:47:18;;;;;;;0.25;0.10;;;;;;;;;;5162080;27;20081;-77
2023/10/20 14:49:44;;;;;;;0.20;0.00;;;;;;;;;;5181351;27;20085;-77
2023/10/20 14:52:12;;;;;;;0.45;0.10;;;;;;;;;;5180504;27;20085;-77
2023/10/20 14:54:39;;;;;;;0.00;0.00;;;;;;;;;;5145154;27;20050;-77
2023/10/20 14:57:06;;;;;;;1.08;0.00;;;;;;;;;;5127718;27;20133;-78
2023/10/20 14:59:32;;;;;;;0.43;0.20;;;;;;;;;;5161566;27;20046;-78
2023/10/20 15:01:58;;;;;;;0.20;0.10;;;;;;;;;;5162156;27;20045;-78
2023/10/20 15:04:25;;;;;;;0.20;0.00;;;;;;;;;;5162185;27;20094;-78
2023/10/20 15:06:51;;;;;;;0.13;0.00;;;;;;;;;;5181071;27;20524;-78
2023/10/20 15:09:17;;;;;;;0.05;0.00;;;;;;;;;;5161476;27;20125;-78
2023/10/20 15:11:43;;;;;;;0.17;0.10;;;;;;;;;;5161787;27;20060;-78
2023/10/20 15:14:09;;;;;;;1.15;0.00;;;;;;;;;;5161647;27;20050;-77
2023/10/20 15:16:35;;;;;;;0.03;0.00;;;;;;;;;;5180040;27;20045;-77